sensor_id;sensor_type;location;lat;lon;timestamp;P1;durP1;ratioP1;P2;durP2;ratioP2
12842;SDS011;35724;49.324;-123.118;2023-10-09T00:03:38;4.90;;;3.00;;
12842;SDS011;35724;49.324;-123.118;2023-10-09T00:13:49;3.85;;;3.00;;
12842;SDS011;35724;49.324;-123.118;2023-10-09T00:24:01;4.50;;;3.17;;
12842;SDS011;35724;49.324;-123.118;2023-10-09T00:34:19;4.53;;;3.40;;
12842;SDS011;35724;49.324;-123.118;2023-10-09T00:44:30;6.45;;;5.70;;
12842;SDS011;35724;49.324;-123.118;2023-10-09T00:54:46;11.55;;;10.45;;
12842;SDS011;35724;49.324;-123.118;2023-10-09T01:04:55;8.02;;;7.22;;
12842;SDS011;35724;49.324;-123.118;2023-10-09T01:15:05;5.93;;;5.38;;
12842;SDS011;35724;49.324;-123.118;2023-10-09T01:25:23;5.32;;;4.85;;
12842;SDS011;35724;49.324;-123.118;2023-10-09T01:35:36;5.05;;;4.65;;
12842;SDS011;35724;49.324;-123.118;2023-10-09T01:45:52;5.43;;;4.57;;
12842;SDS011;35724;49.324;-123.118;2023-10-09T01:56:08;5.72;;;4.68;;
12842;SDS011;35724;49.324;-123.118;2023-10-09T02:06:20;6.68;;;4.60;;
12842;SDS011;35724;49.324;-123.118;2023-10-09T02:16:32;5.55;;;4.35;;
12842;SDS011;35724;49.324;-123.118;2023-10-09T02:26:48;4.45;;;3.90;;
12842;SDS011;35724;49.324;-123.118;2023-10-09T02:37:09;5.03;;;4.53;;
12842;SDS011;35724;49.324;-123.118;2023-10-09T02:47:19;5.82;;;4.50;;
12842;SDS011;35724;49.324;-123.118;2023-10-09T02:57:29;5.82;;;4.07;;
12842;SDS011;35724;49.324;-123.118;2023-10-09T03:07:42;5.57;;;3.50;;
12842;SDS011;35724;49.324;-123.118;2023-10-09T03:17:50;6.95;;;3.70;;
12842;SDS011;35724;49.324;-123.118;2023-10-09T03:27:58;8.20;;;3.65;;
12842;SDS011;35724;49.324;-123.118;2023-10-09T03:38:06;4.78;;;3.20;;
12842;SDS011;35724;49.324;-123.118;2023-10-09T03:48:20;3.95;;;2.80;;
12842;SDS011;35724;49.324;-123.118;2023-10-09T03:58:30;4.05;;;3.22;;
12842;SDS011;35724;49.324;-123.118;2023-10-09T04:08:40;3.15;;;2.85;;
12842;SDS011;35724;49.324;-123.118;2023-10-09T04:18:52;4.15;;;3.10;;
12842;SDS011;35724;49.324;-123.118;2023-10-09T04:29:02;3.83;;;3.20;;
12842;SDS011;35724;49.324;-123.118;2023-10-09T04:39:10;2.97;;;2.70;;
12842;SDS011;35724;49.324;-123.118;2023-10-09T04:49:41;3.47;;;2.60;;
12842;SDS011;35724;49.324;-123.118;2023-10-09T04:59:53;2.60;;;2.40;;
12842;SDS011;35724;49.324;-123.118;2023-10-09T05:10:04;3.38;;;2.42;;
12842;SDS011;35724;49.324;-123.118;2023-10-09T05:20:19;2.95;;;2.50;;
12842;SDS011;35724;49.324;-123.118;2023-10-09T05:30:44;2.58;;;2.38;;
12842;SDS011;35724;49.324;-123.118;2023-10-09T05:41:00;2.17;;;1.98;;
12842;SDS011;35724;49.324;-123.118;2023-10-09T05:51:29;2.40;;;2.20;;
12842;SDS011;35724;49.324;-123.118;2023-10-09T06:01:48;3.53;;;2.13;;
12842;SDS011;35724;49.324;-123.118;2023-10-09T06:12:13;2.33;;;2.00;;
12842;SDS011;35724;49.324;-123.118;2023-10-09T06:22:56;2.40;;;2.00;;
12842;SDS011;35724;49.324;-123.118;2023-10-09T06:33:21;2.00;;;1.90;;
12842;SDS011;35724;49.324;-123.118;2023-10-09T06:43:55;4.53;;;2.25;;
12842;SDS011;35724;49.324;-123.118;2023-10-09T06:54:12;2.25;;;2.00;;
12842;SDS011;35724;49.324;-123.118;2023-10-09T07:04:21;2.30;;;1.70;;
12842;SDS011;35724;49.324;-123.118;2023-10-09T07:14:43;2.38;;;2.17;;
12842;SDS011;35724;49.324;-123.118;2023-10-09T07:25:03;3.13;;;1.92;;
12842;SDS011;35724;49.324;-123.118;2023-10-09T07:35:21;2.28;;;2.08;;
12842;SDS011;35724;49.324;-123.118;2023-10-09T07:45:51;2.38;;;2.15;;
12842;SDS011;35724;49.324;-123.118;2023-10-09T07:56:17;3.25;;;2.05;;
12842;SDS011;35724;49.324;-123.118;2023-10-09T08:06:24;2.17;;;1.98;;
12842;SDS011;35724;49.324;-123.118;2023-10-09T08:17:05;4.18;;;1.90;;
12842;SDS011;35724;49.324;-123.118;2023-10-09T08:27:19;2.08;;;1.80;;
12842;SDS011;35724;49.324;-123.118;2023-10-09T08:37:50;2.08;;;1.80;;
12842;SDS011;35724;49.324;-123.118;2023-10-09T08:47:57;1.95;;;1.85;;
12842;SDS011;35724;49.324;-123.118;2023-10-09T08:58:10;2.28;;;2.00;;
12842;SDS011;35724;49.324;-123.118;2023-10-09T09:08:23;5.60;;;1.90;;
12842;SDS011;35724;49.324;-123.118;2023-10-09T09:18:33;2.25;;;1.85;;
12842;SDS011;35724;49.324;-123.118;2023-10-09T09:29:04;2.70;;;1.80;;
12842;SDS011;35724;49.324;-123.118;2023-10-09T09:39:14;2.25;;;1.80;;
12842;SDS011;35724;49.324;-123.118;2023-10-09T09:49:44;1.70;;;1.60;;
12842;SDS011;35724;49.324;-123.118;2023-10-09T09:59:55;2.50;;;2.08;;
12842;SDS011;35724;49.324;-123.118;2023-10-09T10:21:11;2.08;;;1.83;;
12842;SDS011;35724;49.324;-123.118;2023-10-09T10:31:21;1.80;;;1.70;;
12842;SDS011;35724;49.324;-123.118;2023-10-09T10:42:00;2.22;;;2.00;;
12842;SDS011;35724;49.324;-123.118;2023-10-09T10:52:19;2.50;;;2.00;;
12842;SDS011;35724;49.324;-123.118;2023-10-09T11:02:46;2.22;;;1.95;;
12842;SDS011;35724;49.324;-123.118;2023-10-09T11:12:56;2.00;;;1.80;;
12842;SDS011;35724;49.324;-123.118;2023-10-09T11:23:33;3.67;;;1.75;;
12842;SDS011;35724;49.324;-123.118;2023-10-09T11:33:47;2.03;;;1.88;;
12842;SDS011;35724;49.324;-123.118;2023-10-09T11:43:57;3.38;;;1.85;;
12842;SDS011;35724;49.324;-123.118;2023-10-09T11:54:09;2.15;;;1.98;;
12842;SDS011;35724;49.324;-123.118;2023-10-09T12:04:37;1.88;;;1.77;;
12842;SDS011;35724;49.324;-123.118;2023-10-09T12:14:49;3.10;;;2.00;;
12842;SDS011;35724;49.324;-123.118;2023-10-09T12:24:58;2.60;;;2.33;;
12842;SDS011;35724;49.324;-123.118;2023-10-09T12:35:08;4.32;;;3.92;;
12842;SDS011;35724;49.324;-123.118;2023-10-09T12:45:22;4.97;;;4.57;;
12842;SDS011;35724;49.324;-123.118;2023-10-09T12:55:34;7.10;;;6.40;;
12842;SDS011;35724;49.324;-123.118;2023-10-09T13:05:46;5.95;;;5.18;;
12842;SDS011;35724;49.324;-123.118;2023-10-09T13:15:58;5.35;;;4.85;;
12842;SDS011;35724;49.324;-123.118;2023-10-09T13:26:08;4.97;;;4.50;;
12842;SDS011;35724;49.324;-123.118;2023-10-09T13:36:36;5.40;;;4.38;;
12842;SDS011;35724;49.324;-123.118;2023-10-09T13:46:45;5.72;;;5.22;;
12842;SDS011;35724;49.324;-123.118;2023-10-09T13:56:56;8.27;;;6.63;;
12842;SDS011;35724;49.324;-123.118;2023-10-09T14:07:05;8.20;;;7.40;;
12842;SDS011;35724;49.324;-123.118;2023-10-09T14:17:12;7.57;;;6.72;;
12842;SDS011;35724;49.324;-123.118;2023-10-09T14:27:25;8.52;;;7.68;;
12842;SDS011;35724;49.324;-123.118;2023-10-09T14:37:33;8.48;;;7.60;;
12842;SDS011;35724;49.324;-123.118;2023-10-09T14:47:44;7.85;;;7.15;;
12842;SDS011;35724;49.324;-123.118;2023-10-09T14:57:54;10.70;;;9.65;;
12842;SDS011;35724;49.324;-123.118;2023-10-09T15:08:04;11.88;;;10.73;;
12842;SDS011;35724;49.324;-123.118;2023-10-09T15:18:15;11.00;;;9.90;;
12842;SDS011;35724;49.324;-123.118;2023-10-09T15:28:26;9.98;;;8.90;;
12842;SDS011;35724;49.324;-123.118;2023-10-09T15:38:36;11.88;;;7.70;;
12842;SDS011;35724;49.324;-123.118;2023-10-09T15:48:45;6.60;;;6.00;;
12842;SDS011;35724;49.324;-123.118;2023-10-09T15:58:55;6.18;;;5.60;;
12842;SDS011;35724;49.324;-123.118;2023-10-09T16:09:05;4.20;;;3.63;;
12842;SDS011;35724;49.324;-123.118;2023-10-09T16:19:15;3.72;;;2.38;;
12842;SDS011;35724;49.324;-123.118;2023-10-09T16:29:25;3.45;;;2.05;;
12842;SDS011;35724;49.324;-123.118;2023-10-09T16:39:34;2.10;;;1.80;;
12842;SDS011;35724;49.324;-123.118;2023-10-09T16:49:45;2.63;;;1.70;;
12842;SDS011;35724;49.324;-123.118;2023-10-09T16:59:55;1.77;;;1.63;;
12842;SDS011;35724;49.324;-123.118;2023-10-09T17:10:04;3.40;;;2.08;;
12842;SDS011;35724;49.324;-123.118;2023-10-09T17:20:18;3.88;;;1.90;;
12842;SDS011;35724;49.324;-123.118;2023-10-09T17:30:32;2.30;;;1.60;;
12842;SDS011;35724;49.324;-123.118;2023-10-09T17:40:44;1.65;;;1.55;;
12842;SDS011;35724;49.324;-123.118;2023-10-09T17:50:57;3.53;;;1.60;;
12842;SDS011;35724;49.324;-123.118;2023-10-09T18:01:05;3.60;;;1.60;;
12842;SDS011;35724;49.324;-123.118;2023-10-09T18:11:14;3.45;;;1.70;;
12842;SDS011;35724;49.324;-123.118;2023-10-09T18:21:22;2.45;;;1.90;;
12842;SDS011;35724;49.324;-123.118;2023-10-09T18:31:33;3.22;;;1.95;;
12842;SDS011;35724;49.324;-123.118;2023-10-09T18:41:42;4.50;;;2.13;;
12842;SDS011;35724;49.324;-123.118;2023-10-09T18:51:52;4.13;;;2.22;;
12842;SDS011;35724;49.324;-123.118;2023-10-09T19:02:03;4.35;;;1.88;;
12842;SDS011;35724;49.324;-123.118;2023-10-09T19:12:16;3.50;;;1.92;;
12842;SDS011;35724;49.324;-123.118;2023-10-09T19:22:28;4.30;;;1.85;;
12842;SDS011;35724;49.324;-123.118;2023-10-09T19:33:19;3.50;;;1.70;;
12842;SDS011;35724;49.324;-123.118;2023-10-09T19:43:26;2.58;;;1.90;;
12842;SDS011;35724;49.324;-123.118;2023-10-09T19:53:35;1.95;;;1.60;;
12842;SDS011;35724;49.324;-123.118;2023-10-09T20:03:43;3.08;;;1.73;;
12842;SDS011;35724;49.324;-123.118;2023-10-09T20:13:52;1.85;;;1.38;;
12842;SDS011;35724;49.324;-123.118;2023-10-09T20:23:59;1.92;;;1.50;;
12842;SDS011;35724;49.324;-123.118;2023-10-09T20:34:09;4.03;;;1.65;;
12842;SDS011;35724;49.324;-123.118;2023-10-09T20:44:16;5.03;;;1.50;;
12842;SDS011;35724;49.324;-123.118;2023-10-09T20:54:25;1.60;;;1.50;;
12842;SDS011;35724;49.324;-123.118;2023-10-09T21:04:33;2.63;;;1.50;;
12842;SDS011;35724;49.324;-123.118;2023-10-09T21:14:43;3.45;;;1.90;;
12842;SDS011;35724;49.324;-123.118;2023-10-09T21:24:50;1.83;;;1.50;;
12842;SDS011;35724;49.324;-123.118;2023-10-09T21:34:59;3.13;;;1.58;;
12842;SDS011;35724;49.324;-123.118;2023-10-09T21:45:07;3.55;;;2.15;;
12842;SDS011;35724;49.324;-123.118;2023-10-09T21:55:17;5.43;;;2.90;;
12842;SDS011;35724;49.324;-123.118;2023-10-09T22:05:25;6.18;;;2.20;;
12842;SDS011;35724;49.324;-123.118;2023-10-09T22:15:37;2.70;;;1.80;;
12842;SDS011;35724;49.324;-123.118;2023-10-09T22:25:57;1.90;;;1.70;;
12842;SDS011;35724;49.324;-123.118;2023-10-09T22:36:07;2.03;;;1.80;;
12842;SDS011;35724;49.324;-123.118;2023-10-09T22:46:14;2.40;;;1.60;;
12842;SDS011;35724;49.324;-123.118;2023-10-09T22:56:25;1.83;;;1.63;;
12842;SDS011;35724;49.324;-123.118;2023-10-09T23:06:34;5.38;;;1.60;;
12842;SDS011;35724;49.324;-123.118;2023-10-09T23:16:46;3.10;;;1.50;;
12842;SDS011;35724;49.324;-123.118;2023-10-09T23:27:08;2.08;;;1.42;;
12842;SDS011;35724;49.324;-123.118;2023-10-09T23:37:31;3.88;;;1.38;;
12842;SDS011;35724;49.324;-123.118;2023-10-09T23:47:43;2.63;;;1.30;;
12842;SDS011;35724;49.324;-123.118;2023-10-09T23:57:52;2.05;;;1.30;;
